Pagrindinis puslapis
METAR-TAF:

METAR-TAF

Oro uostai :

Londonas Southend, Anglija

platuma: 51-34N, ilguma: 000-42E, Aukštis: 15 m

Dabartinis oras

Ataskaita buvo paskelbta 30 minutes, ne 05:20 UTC
Vėjas 4 kt iš Pietų/Pietvakarių
Temperatūra 18°C
Drėgmė 88%
Slėgis 1009 hPa
Matomumas 10 km arba daugiau
nėra debesų žemiau 1500 m ir nėra kamuolinių lietaus debesų

METAR: EGMC 200520Z 21004KT CAVOK 18/16 Q1009

Laikas: 06:50 (05:50 UTC)

Prognozė

Ataskaita buvo paskelbta 12 valandos ir 53 minutes, ne 16:57 UTC
Prognozė galioja nuo 19 metu 18 UTC su 19 metu 22 UTC
Vėjas 10 kt iš Rytų
Matomumas 10 km arba daugiau
nėra debesų žemiau 1500 m ir nėra kamuolinių lietaus debesų
Tapsmas
nuo 19 metu 19 UTC su 19 metu 22 UTC
Vėjas 7 kt iš Pietų/Pietvakarių

TAF: EGMC 191657Z 1918/1922 09010KT CAVOK BECMG 1919/1922 20007KT

Orai ataskaitas ir orų prognozės (METAR, TAF).

turimą stotys yra geltonos ir raudonos taškus žemėlapyje.

Perkelti pele per norėdami pamatyti stoties vardą.

Tada spustelėkite, norėdami matyti oro stebėjimo ir prognozės.

Norėdami pakeisti žemėlapį: spustelėkite ant žalios mygtukų su juodo kryžiaus žemyn,; žalią mygtuką su brūkšneliu, jei norite nutolinti; arba žalių rodyklių gretimoms žemėlapius.


METAR-TAF: